createdAt,value
2019-03-12T00:00:11.256Z,0.00
2019-03-12T00:01:11.141Z,0.00
2019-03-12T00:02:11.131Z,0.00
2019-03-12T00:03:11.158Z,0.00
2019-03-12T00:04:11.207Z,0.00
2019-03-12T00:05:11.116Z,0.00
2019-03-12T00:06:11.126Z,0.00
2019-03-12T00:07:11.141Z,0.00
2019-03-12T00:08:11.085Z,0.00
2019-03-12T00:09:11.087Z,0.00
2019-03-12T00:10:11.053Z,0.00
2019-03-12T00:11:11.077Z,0.00
2019-03-12T00:12:11.020Z,0.00
2019-03-12T00:13:11.054Z,0.00
2019-03-12T00:14:11.084Z,0.00
2019-03-12T00:15:11.050Z,0.00
2019-03-12T00:16:11.001Z,0.00
2019-03-12T00:17:10.965Z,0.00
2019-03-12T00:18:10.959Z,0.00
2019-03-12T00:19:11.071Z,0.00
2019-03-12T00:20:10.947Z,0.00
2019-03-12T00:21:11.112Z,0.00
2019-03-12T00:22:10.919Z,0.00
2019-03-12T00:23:11.052Z,0.00
2019-03-12T00:24:10.911Z,0.00
2019-03-12T00:25:10.901Z,0.00
2019-03-12T00:26:10.882Z,0.00
2019-03-12T00:27:10.942Z,0.00
2019-03-12T00:28:10.885Z,0.00
2019-03-12T00:29:10.855Z,0.00
2019-03-12T00:30:10.906Z,0.00
2019-03-12T00:31:10.861Z,0.00
2019-03-12T00:32:10.843Z,0.00
2019-03-12T00:33:10.903Z,0.00
2019-03-12T00:34:10.835Z,0.00
2019-03-12T00:35:10.795Z,0.00
2019-03-12T00:36:10.795Z,0.00
2019-03-12T00:37:10.759Z,0.00
2019-03-12T00:38:10.761Z,0.00
2019-03-12T00:39:10.732Z,0.00
2019-03-12T00:40:10.789Z,0.00
2019-03-12T00:41:10.765Z,0.00
2019-03-12T00:42:10.760Z,0.00
2019-03-12T00:43:10.733Z,0.00
2019-03-12T00:44:10.741Z,0.00
2019-03-12T00:45:10.691Z,0.00
2019-03-12T00:46:10.689Z,0.00
2019-03-12T00:47:10.654Z,0.00
2019-03-12T00:48:10.824Z,0.00
2019-03-12T00:49:10.636Z,0.00
2019-03-12T00:50:10.762Z,0.00
2019-03-12T00:51:10.701Z,0.00
2019-03-12T00:52:10.619Z,0.00
2019-03-12T00:53:10.599Z,0.00
2019-03-12T00:54:10.584Z,0.00
2019-03-12T00:55:10.611Z,0.00
2019-03-12T00:56:10.591Z,0.00
2019-03-12T00:57:10.571Z,0.00
2019-03-12T00:58:10.567Z,0.00
2019-03-12T00:59:10.599Z,0.00
2019-03-12T01:00:10.544Z,0.00
2019-03-12T01:01:10.532Z,0.00
2019-03-12T01:02:10.537Z,0.00
2019-03-12T01:03:10.541Z,0.00
2019-03-12T01:04:10.493Z,0.00
2019-03-12T01:05:10.524Z,0.00
2019-03-12T01:06:10.479Z,0.00
2019-03-12T01:07:10.456Z,0.00
2019-03-12T01:08:10.453Z,0.00
2019-03-12T01:09:10.501Z,0.00
2019-03-12T01:10:10.463Z,0.00
2019-03-12T01:11:10.729Z,0.00
2019-03-12T01:12:10.421Z,0.00
2019-03-12T01:13:10.417Z,0.00
2019-03-12T01:14:10.367Z,0.00
2019-03-12T01:15:10.384Z,0.00
2019-03-12T01:16:10.369Z,0.00
2019-03-12T01:17:10.353Z,0.00
2019-03-12T01:18:13.588Z,0.00
2019-03-12T01:19:10.345Z,0.00
2019-03-12T01:20:10.314Z,0.00
2019-03-12T01:21:10.348Z,0.00
2019-03-12T01:22:10.315Z,0.00
2019-03-12T01:23:10.280Z,0.00
2019-03-12T01:24:10.277Z,0.00
2019-03-12T01:25:10.276Z,0.00
2019-03-12T01:26:10.300Z,0.00
2019-03-12T01:27:10.264Z,0.00
2019-03-12T01:28:10.250Z,0.00
2019-03-12T01:29:11.274Z,0.00
2019-03-12T01:30:10.241Z,0.00
2019-03-12T01:31:10.197Z,0.00
2019-03-12T01:32:10.231Z,0.00
2019-03-12T01:33:10.197Z,0.00
2019-03-12T01:34:10.163Z,0.00
2019-03-12T01:35:10.182Z,0.00
2019-03-12T01:36:10.178Z,0.00
2019-03-12T01:37:10.161Z,0.00
2019-03-12T01:38:10.126Z,0.00
2019-03-12T01:39:10.149Z,0.00
2019-03-12T01:40:10.118Z,0.00
2019-03-12T01:41:10.103Z,0.00
2019-03-12T01:42:10.155Z,0.00
2019-03-12T01:43:10.079Z,0.00
2019-03-12T01:44:10.069Z,0.00
2019-03-12T01:45:10.068Z,0.00
2019-03-12T01:46:10.065Z,0.00
2019-03-12T01:47:10.099Z,0.00
2019-03-12T01:48:10.054Z,0.00
2019-03-12T01:49:10.065Z,0.00
2019-03-12T01:50:10.021Z,0.00
2019-03-12T01:51:10.123Z,0.00
2019-03-12T01:52:10.037Z,0.00
2019-03-12T01:53:09.983Z,0.00
2019-03-12T01:54:09.966Z,0.00
2019-03-12T01:55:09.956Z,0.00
2019-03-12T01:56:09.999Z,0.00
2019-03-12T01:57:09.936Z,0.00
2019-03-12T01:58:09.940Z,0.00
2019-03-12T01:59:09.943Z,0.00
2019-03-12T02:00:09.959Z,0.00
2019-03-12T02:01:09.944Z,0.00
2019-03-12T02:02:09.962Z,0.00
2019-03-12T02:03:09.885Z,0.00
2019-03-12T02:04:09.869Z,0.00
2019-03-12T02:05:09.840Z,0.00
2019-03-12T02:06:09.860Z,0.00
2019-03-12T02:07:09.871Z,0.00
2019-03-12T02:08:09.862Z,0.00
2019-03-12T02:09:09.888Z,0.00
2019-03-12T02:10:09.828Z,0.00
2019-03-12T02:11:09.783Z,0.00
2019-03-12T02:12:09.824Z,0.00
2019-03-12T02:13:09.777Z,0.00
2019-03-12T02:14:09.747Z,0.00
2019-03-12T02:15:09.829Z,0.00
2019-03-12T02:16:09.858Z,0.00
2019-03-12T02:17:09.806Z,0.00
2019-03-12T02:18:09.713Z,0.00
2019-03-12T02:19:09.768Z,0.00
2019-03-12T02:20:09.779Z,0.00
2019-03-12T02:21:09.684Z,0.00
2019-03-12T02:22:09.723Z,0.00
2019-03-12T02:23:09.680Z,0.00
2019-03-12T02:24:09.664Z,0.00
2019-03-12T02:25:09.634Z,0.00
2019-03-12T02:26:09.624Z,0.00
2019-03-12T02:27:09.722Z,0.00
2019-03-12T02:28:09.720Z,0.00
2019-03-12T02:29:09.590Z,0.00
2019-03-12T02:30:09.646Z,0.00
2019-03-12T02:31:09.619Z,0.00
2019-03-12T02:32:09.572Z,0.00
2019-03-12T02:33:09.603Z,0.00
2019-03-12T02:34:09.862Z,0.00
2019-03-12T02:35:09.580Z,0.00
2019-03-12T02:36:09.573Z,0.00
2019-03-12T02:37:09.544Z,0.00
2019-03-12T02:38:09.626Z,0.00
2019-03-12T02:39:09.540Z,0.00
2019-03-12T02:40:09.637Z,0.00
2019-03-12T02:41:09.477Z,0.00
2019-03-12T02:42:12.402Z,0.00
2019-03-12T02:43:09.498Z,0.00
2019-03-12T02:44:09.438Z,0.00
2019-03-12T02:45:09.548Z,0.00
2019-03-12T02:46:09.454Z,0.00
2019-03-12T02:47:09.441Z,0.00
2019-03-12T02:48:09.428Z,0.00
2019-03-12T02:49:10.308Z,0.00
2019-03-12T02:50:09.391Z,0.00
2019-03-12T02:51:09.392Z,0.00
2019-03-12T02:52:09.391Z,0.00
2019-03-12T02:53:09.377Z,0.00
2019-03-12T02:54:09.346Z,0.00
2019-03-12T02:55:09.344Z,0.00
2019-03-12T02:56:09.323Z,0.00
2019-03-12T02:57:09.301Z,0.00
2019-03-12T02:58:09.486Z,0.00
2019-03-12T02:59:09.329Z,0.00
2019-03-12T03:00:09.319Z,0.00
2019-03-12T03:01:09.265Z,0.00
2019-03-12T03:02:09.350Z,0.00
2019-03-12T03:03:09.259Z,0.00
2019-03-12T03:04:09.341Z,0.00
2019-03-12T03:05:09.263Z,0.00
2019-03-12T03:06:09.254Z,0.00
2019-03-12T03:07:09.245Z,0.00
2019-03-12T03:08:09.269Z,0.00
2019-03-12T03:09:09.183Z,0.00
2019-03-12T03:10:09.284Z,0.00
2019-03-12T03:11:09.177Z,0.00
2019-03-12T03:12:09.165Z,0.00
2019-03-12T03:13:09.177Z,0.00
2019-03-12T03:14:09.150Z,0.00
2019-03-12T03:15:09.151Z,0.00
2019-03-12T03:16:09.109Z,0.00
2019-03-12T03:17:09.171Z,0.00
2019-03-12T03:18:09.148Z,0.00
2019-03-12T03:19:09.172Z,0.00
2019-03-12T03:20:09.061Z,0.00
2019-03-12T03:21:09.055Z,0.00
2019-03-12T03:22:09.127Z,0.00
2019-03-12T03:23:09.087Z,0.00
2019-03-12T03:24:09.052Z,0.00
2019-03-12T03:25:09.057Z,0.00
2019-03-12T03:26:09.010Z,0.00
2019-03-12T03:27:09.008Z,0.00
2019-03-12T03:28:09.058Z,0.00
2019-03-12T03:29:08.975Z,0.00
2019-03-12T03:30:09.080Z,0.00
2019-03-12T03:31:08.995Z,0.00
2019-03-12T03:32:08.990Z,0.00
2019-03-12T03:33:08.976Z,0.00
2019-03-12T03:34:08.996Z,0.00
2019-03-12T03:35:08.928Z,0.00
2019-03-12T03:36:08.934Z,0.00
2019-03-12T03:37:08.900Z,0.00
2019-03-12T03:38:09.032Z,0.00
2019-03-12T03:39:08.868Z,0.00
2019-03-12T03:40:08.869Z,0.00
2019-03-12T03:41:08.989Z,0.00
2019-03-12T03:42:08.837Z,0.00
2019-03-12T03:43:08.855Z,0.00
2019-03-12T03:44:08.819Z,0.00
2019-03-12T03:45:08.938Z,0.00
2019-03-12T03:46:08.876Z,0.00
2019-03-12T03:47:08.782Z,0.00
2019-03-12T03:48:08.810Z,0.00
2019-03-12T03:49:08.790Z,0.00
2019-03-12T03:50:08.839Z,0.00
2019-03-12T03:51:08.793Z,0.00
2019-03-12T03:52:08.865Z,0.00
2019-03-12T03:53:08.736Z,0.00
2019-03-12T03:54:08.740Z,0.00
2019-03-12T03:55:08.773Z,0.00
2019-03-12T03:56:08.697Z,0.00
2019-03-12T03:57:08.700Z,0.00
2019-03-12T03:58:08.783Z,0.00
2019-03-12T03:59:08.690Z,0.00
2019-03-12T04:00:08.694Z,0.00
2019-03-12T04:01:08.674Z,0.00
2019-03-12T04:02:08.651Z,0.00
2019-03-12T04:03:08.652Z,0.00
2019-03-12T04:04:08.641Z,0.00
2019-03-12T04:05:08.597Z,0.00
2019-03-12T04:06:08.607Z,0.00
2019-03-12T04:07:08.634Z,0.00
2019-03-12T04:08:08.590Z,0.00
2019-03-12T04:09:08.604Z,0.00
2019-03-12T04:10:08.578Z,0.00
2019-03-12T04:11:08.667Z,0.00
2019-03-12T04:12:08.560Z,0.00
2019-03-12T04:13:08.513Z,0.00
2019-03-12T04:14:08.576Z,0.00
2019-03-12T04:15:08.526Z,0.00
2019-03-12T04:16:08.521Z,0.00
2019-03-12T04:17:08.522Z,0.00
2019-03-12T04:18:08.470Z,0.00
2019-03-12T04:19:08.456Z,0.00
2019-03-12T04:20:08.451Z,0.00
2019-03-12T04:21:08.459Z,0.00
2019-03-12T04:22:08.452Z,0.00
2019-03-12T04:23:08.403Z,0.00
2019-03-12T04:24:08.475Z,0.00
2019-03-12T04:25:08.389Z,0.00
2019-03-12T04:26:08.408Z,0.00
2019-03-12T04:27:08.441Z,0.00
2019-03-12T04:28:08.464Z,0.00
2019-03-12T04:29:08.407Z,0.00
2019-03-12T04:30:08.337Z,0.00
2019-03-12T04:31:08.401Z,0.00
2019-03-12T04:32:08.324Z,0.00
2019-03-12T04:33:08.336Z,0.00
2019-03-12T04:34:08.384Z,0.00
2019-03-12T04:35:08.290Z,0.00
2019-03-12T04:36:08.286Z,0.00
2019-03-12T04:37:08.289Z,0.00
2019-03-12T04:38:08.292Z,0.00
2019-03-12T04:39:08.252Z,0.00
2019-03-12T04:40:08.225Z,0.00
2019-03-12T04:41:08.276Z,0.00
2019-03-12T04:42:08.236Z,0.00
2019-03-12T04:43:08.242Z,0.00
2019-03-12T04:44:08.232Z,0.00
2019-03-12T04:45:08.168Z,0.00
2019-03-12T04:46:08.211Z,0.00
2019-03-12T04:47:08.249Z,0.00
2019-03-12T04:48:08.170Z,0.00
2019-03-12T04:49:08.217Z,0.00
2019-03-12T04:50:08.159Z,0.00
2019-03-12T04:51:08.111Z,0.00
2019-03-12T04:52:08.099Z,0.00
2019-03-12T04:53:08.148Z,0.00
2019-03-12T04:54:08.229Z,0.00
2019-03-12T04:55:08.119Z,0.00
2019-03-12T04:56:08.064Z,0.00
2019-03-12T04:57:08.070Z,0.00
2019-03-12T04:58:08.039Z,0.00
2019-03-12T04:59:08.073Z,0.00
2019-03-12T05:00:08.056Z,0.00
2019-03-12T05:01:08.009Z,0.00
2019-03-12T05:02:08.000Z,0.00
2019-03-12T05:03:07.985Z,0.00
2019-03-12T05:04:08.010Z,0.00
2019-03-12T05:05:07.999Z,0.00
2019-03-12T05:06:07.968Z,0.00
2019-03-12T05:07:07.965Z,0.00
2019-03-12T05:08:07.961Z,0.00
2019-03-12T05:09:07.964Z,0.00
2019-03-12T05:10:07.981Z,0.00
2019-03-12T05:11:07.926Z,0.00
2019-03-12T05:12:07.916Z,0.00
2019-03-12T05:13:07.893Z,0.00
2019-03-12T05:14:07.891Z,0.00
2019-03-12T05:15:07.922Z,0.00
2019-03-12T05:16:07.917Z,0.00
2019-03-12T05:17:07.869Z,0.00
2019-03-12T05:18:07.962Z,4.00
2019-03-12T05:19:07.870Z,0.00
2019-03-12T05:20:07.826Z,0.00
2019-03-12T05:21:07.827Z,4.00
2019-03-12T05:22:07.868Z,4.00
2019-03-12T05:23:07.795Z,4.00
2019-03-12T05:24:07.768Z,4.00
2019-03-12T05:25:07.773Z,4.00
2019-03-12T05:26:07.764Z,4.00
2019-03-12T05:27:07.752Z,8.00
2019-03-12T05:28:07.769Z,12.00
2019-03-12T05:29:07.748Z,16.00
2019-03-12T05:30:07.725Z,16.00
2019-03-12T05:31:07.711Z,20.00
2019-03-12T05:32:07.721Z,28.00
2019-03-12T05:33:07.713Z,32.00
2019-03-12T05:34:07.663Z,40.00
2019-03-12T05:35:07.673Z,48.00
2019-03-12T05:36:07.661Z,56.00
2019-03-12T05:37:07.644Z,64.00
2019-03-12T05:38:07.646Z,76.00
2019-03-12T05:39:07.632Z,92.00
2019-03-12T05:40:07.617Z,108.00
2019-03-12T05:41:07.664Z,124.00
2019-03-12T05:42:07.665Z,144.00
2019-03-12T05:43:07.733Z,164.00
2019-03-12T05:44:07.630Z,188.00
2019-03-12T05:45:07.570Z,212.00
2019-03-12T05:46:07.574Z,240.00
2019-03-12T05:47:08.351Z,268.00
2019-03-12T05:48:07.552Z,304.00
2019-03-12T05:49:07.517Z,336.00
2019-03-12T05:50:07.521Z,372.00
2019-03-12T05:51:07.487Z,408.00
2019-03-12T05:52:07.527Z,448.00
2019-03-12T05:53:07.487Z,488.00
2019-03-12T05:54:07.530Z,528.00
2019-03-12T05:55:07.599Z,568.00
2019-03-12T05:56:07.465Z,612.00
2019-03-12T05:57:07.476Z,648.00
2019-03-12T05:58:07.440Z,692.00
2019-03-12T05:59:07.442Z,736.00
2019-03-12T06:00:07.538Z,780.00
2019-03-12T06:01:07.431Z,828.00
2019-03-12T06:02:07.409Z,880.00
2019-03-12T06:03:07.393Z,936.00
2019-03-12T06:04:07.417Z,996.00
2019-03-12T06:05:07.361Z,1048.00
2019-03-12T06:06:07.392Z,1112.00
2019-03-12T06:07:07.457Z,1180.00
2019-03-12T06:08:07.330Z,1260.00
2019-03-12T06:09:07.344Z,1340.00
2019-03-12T06:10:07.323Z,1428.00
2019-03-12T06:11:07.327Z,1520.00
2019-03-12T06:12:07.329Z,1620.00
2019-03-12T06:13:07.336Z,1724.00
2019-03-12T06:14:07.271Z,1836.00
2019-03-12T06:15:07.350Z,1944.00
2019-03-12T06:16:07.252Z,2052.00
2019-03-12T06:17:07.343Z,2156.00
2019-03-12T06:18:07.236Z,2268.00
2019-03-12T06:19:07.287Z,2416.00
2019-03-12T06:20:07.224Z,2564.00
2019-03-12T06:21:07.227Z,2688.00
2019-03-12T06:22:07.228Z,2808.00
2019-03-12T06:23:07.176Z,2936.00
2019-03-12T06:24:07.152Z,3088.00
2019-03-12T06:25:07.163Z,3248.00
2019-03-12T06:26:07.208Z,3408.00
2019-03-12T06:27:07.122Z,3572.00
2019-03-12T06:28:07.181Z,3748.00
2019-03-12T06:29:07.119Z,3912.00
2019-03-12T06:30:07.086Z,4056.00
2019-03-12T06:31:07.101Z,4232.00
2019-03-12T06:32:07.134Z,4448.00
2019-03-12T06:33:07.148Z,4696.00
2019-03-12T06:34:07.155Z,4916.00
2019-03-12T06:35:07.036Z,5276.00
2019-03-12T06:36:07.166Z,5612.00
2019-03-12T06:37:07.049Z,5752.00
2019-03-12T06:38:07.096Z,5844.00
2019-03-12T06:39:06.995Z,5924.00
2019-03-12T06:40:07.008Z,5908.00
2019-03-12T06:41:07.202Z,5872.00
2019-03-12T06:42:08.044Z,5944.00
2019-03-12T06:43:06.956Z,6160.00
2019-03-12T06:44:07.115Z,6560.00
2019-03-12T06:45:06.946Z,7012.00
2019-03-12T06:46:06.956Z,7380.00
2019-03-12T06:47:07.018Z,7828.00
2019-03-12T06:48:06.921Z,8128.00
2019-03-12T06:49:06.948Z,8136.00
2019-03-12T06:50:06.908Z,8084.00
2019-03-12T06:51:06.937Z,8056.00
2019-03-12T06:52:07.050Z,7984.00
2019-03-12T06:53:06.885Z,7964.00
2019-03-12T06:54:06.867Z,8052.00
2019-03-12T06:55:06.870Z,8112.00
2019-03-12T06:56:06.966Z,7972.00
2019-03-12T06:57:06.812Z,8024.00
2019-03-12T06:58:06.812Z,8348.00
2019-03-12T06:59:06.798Z,8596.00
2019-03-12T07:00:06.847Z,8956.00
2019-03-12T07:01:08.158Z,9348.00
2019-03-12T07:02:06.779Z,9796.00
2019-03-12T07:03:06.863Z,10136.00
2019-03-12T07:04:06.751Z,10192.00
2019-03-12T07:05:06.737Z,9804.00
2019-03-12T07:06:06.785Z,9944.00
2019-03-12T07:07:11.032Z,9724.00
2019-03-12T07:08:06.777Z,9552.00
2019-03-12T07:09:06.792Z,9272.00
2019-03-12T07:10:06.673Z,9040.00
2019-03-12T07:11:06.682Z,8836.00
2019-03-12T07:12:06.674Z,8344.00
2019-03-12T07:13:06.639Z,7724.00
2019-03-12T07:14:06.635Z,6928.00
2019-03-12T07:15:06.694Z,6264.00
2019-03-12T07:16:06.646Z,6032.00
2019-03-12T07:17:06.668Z,6032.00
2019-03-12T07:18:06.637Z,5896.00
2019-03-12T07:19:06.605Z,5712.00
2019-03-12T07:20:06.584Z,5016.00
2019-03-12T07:21:06.585Z,5364.00
2019-03-12T07:22:06.667Z,4580.00
2019-03-12T07:23:06.562Z,4724.00
2019-03-12T07:24:06.609Z,5072.00
2019-03-12T07:25:06.572Z,5788.00
2019-03-12T07:26:06.533Z,5892.00
2019-03-12T07:27:06.531Z,5996.00
2019-03-12T07:28:06.486Z,6140.00
2019-03-12T07:29:06.472Z,6296.00
2019-03-12T07:30:06.602Z,6372.00
2019-03-12T07:31:06.519Z,6420.00
2019-03-12T07:32:06.503Z,6476.00
2019-03-12T07:33:06.459Z,6536.00
2019-03-12T07:34:06.621Z,6588.00
2019-03-12T07:35:06.529Z,6632.00
2019-03-12T07:36:06.431Z,6652.00
2019-03-12T07:37:06.418Z,6692.00
2019-03-12T07:38:06.440Z,6688.00
2019-03-12T07:39:06.369Z,6752.00
2019-03-12T07:40:06.362Z,6812.00
2019-03-12T07:41:06.470Z,6892.00
2019-03-12T07:42:06.412Z,6932.00
2019-03-12T07:43:06.403Z,6964.00
2019-03-12T07:44:06.465Z,7048.00
2019-03-12T07:45:06.309Z,7172.00
2019-03-12T07:46:06.339Z,7256.00
2019-03-12T07:47:06.375Z,7372.00
2019-03-12T07:48:06.362Z,7212.00
2019-03-12T07:49:06.282Z,7728.00
2019-03-12T07:50:06.264Z,7856.00
2019-03-12T07:51:06.314Z,7960.00
2019-03-12T07:52:08.603Z,8020.00
2019-03-12T07:53:06.231Z,8088.00
2019-03-12T07:54:06.205Z,8112.00
2019-03-12T07:55:06.192Z,8168.00
2019-03-12T07:56:06.193Z,8172.00
2019-03-12T07:57:06.213Z,8168.00
2019-03-12T07:58:06.162Z,8176.00
2019-03-12T07:59:08.877Z,8132.00
2019-03-12T08:00:06.200Z,7704.00
2019-03-12T08:01:06.138Z,6912.00
2019-03-12T08:02:06.149Z,6972.00
2019-03-12T08:03:06.124Z,7324.00
2019-03-12T08:04:06.221Z,7332.00
2019-03-12T08:05:06.089Z,7056.00
2019-03-12T08:06:06.121Z,7428.00
2019-03-12T08:07:06.109Z,8144.00
2019-03-12T08:08:06.383Z,9116.00
2019-03-12T08:09:06.058Z,10000.00
2019-03-12T08:10:06.043Z,10116.00
2019-03-12T08:11:06.048Z,10120.00
2019-03-12T08:12:06.036Z,10592.00
2019-03-12T08:13:06.024Z,10716.00
2019-03-12T08:14:06.016Z,10892.00
2019-03-12T08:15:06.001Z,11224.00
2019-03-12T08:16:06.014Z,12168.00
2019-03-12T08:17:05.981Z,13044.00
2019-03-12T08:18:06.205Z,13512.00
2019-03-12T08:19:05.955Z,13540.00
2019-03-12T08:20:05.979Z,13700.00
2019-03-12T08:21:06.014Z,14000.00
2019-03-12T08:22:05.955Z,14160.00
2019-03-12T08:23:05.906Z,14000.00
2019-03-12T08:24:05.936Z,13620.00
2019-03-12T08:25:05.895Z,14028.00
2019-03-12T08:26:05.969Z,14468.00
2019-03-12T08:27:05.858Z,15180.00
2019-03-12T08:28:05.904Z,15776.00
2019-03-12T08:29:05.859Z,15968.00
2019-03-12T08:30:05.832Z,16704.00
2019-03-12T08:31:05.808Z,17248.00
2019-03-12T08:32:05.887Z,17984.00
2019-03-12T08:33:05.857Z,17600.00
2019-03-12T08:34:05.817Z,17504.00
2019-03-12T08:35:05.779Z,16928.00
2019-03-12T08:36:05.802Z,16448.00
2019-03-12T08:37:05.747Z,16352.00
2019-03-12T08:38:05.894Z,16096.00
2019-03-12T08:39:05.767Z,15776.00
2019-03-12T08:40:05.714Z,14552.00
2019-03-12T08:41:05.709Z,13576.00
2019-03-12T08:42:05.763Z,13204.00
2019-03-12T08:43:05.689Z,12764.00
2019-03-12T08:44:05.684Z,11860.00
2019-03-12T08:45:05.678Z,11332.00
2019-03-12T08:46:05.669Z,12124.00
2019-03-12T08:47:05.689Z,17824.00
2019-03-12T08:48:05.668Z,22432.00
2019-03-12T08:49:05.615Z,21664.00
2019-03-12T08:50:05.623Z,23712.00
2019-03-12T08:51:05.614Z,25792.00
2019-03-12T08:52:05.587Z,26848.00
2019-03-12T08:53:05.581Z,27936.00
2019-03-12T08:54:05.576Z,29568.00
2019-03-12T08:55:05.648Z,30112.00
2019-03-12T08:56:05.539Z,30720.00
2019-03-12T08:57:05.535Z,33344.00
2019-03-12T08:58:05.539Z,33856.00
2019-03-12T08:59:05.515Z,33408.00
2019-03-12T09:00:05.498Z,34592.00
2019-03-12T09:01:05.694Z,35744.00
2019-03-12T09:02:05.493Z,35168.00
2019-03-12T09:03:05.514Z,34720.00
2019-03-12T09:04:05.497Z,36352.00
2019-03-12T09:05:05.464Z,37344.00
2019-03-12T09:06:05.432Z,38016.00
2019-03-12T09:07:05.512Z,39168.00
2019-03-12T09:08:05.446Z,40096.00
2019-03-12T09:09:05.485Z,40736.00
2019-03-12T09:10:05.441Z,37504.00
2019-03-12T09:11:05.376Z,23680.00
2019-03-12T09:12:05.386Z,21792.00
2019-03-12T09:13:05.451Z,39744.00
2019-03-12T09:14:05.374Z,50528.00
2019-03-12T09:15:05.409Z,53824.00
2019-03-12T09:16:05.357Z,34752.00
2019-03-12T09:17:05.348Z,35232.00
2019-03-12T09:18:05.324Z,30816.00
2019-03-12T09:19:05.294Z,29984.00
2019-03-12T09:20:05.315Z,28992.00
2019-03-12T09:21:05.276Z,30560.00
2019-03-12T09:22:05.279Z,36896.00
2019-03-12T09:23:05.283Z,34464.00
2019-03-12T09:24:05.254Z,36000.00
2019-03-12T09:25:05.241Z,36096.00
2019-03-12T09:26:05.272Z,33312.00
2019-03-12T09:27:05.214Z,32608.00
2019-03-12T09:28:05.229Z,30656.00
2019-03-12T09:29:05.258Z,30752.00
2019-03-12T09:30:05.371Z,31360.00
2019-03-12T09:31:05.183Z,32192.00
2019-03-12T09:32:05.155Z,34144.00
2019-03-12T09:33:05.162Z,35520.00
2019-03-12T09:34:05.247Z,35296.00
2019-03-12T09:35:05.136Z,33600.00
2019-03-12T09:36:05.128Z,35520.00
2019-03-12T09:37:05.145Z,32672.00
2019-03-12T09:38:05.160Z,27616.00
2019-03-12T09:39:05.150Z,26464.00
2019-03-12T09:40:05.065Z,27840.00
2019-03-12T09:41:05.111Z,27840.00
2019-03-12T09:42:05.088Z,27584.00
2019-03-12T09:43:05.106Z,35392.00
2019-03-12T09:44:05.091Z,38624.00
2019-03-12T09:45:05.019Z,39936.00
2019-03-12T09:46:05.020Z,33696.00
2019-03-12T09:47:05.010Z,38784.00
2019-03-12T09:48:05.053Z,34592.00
2019-03-12T09:49:04.992Z,39552.00
2019-03-12T09:50:04.986Z,47584.00
2019-03-12T09:51:04.950Z,47840.00
2019-03-12T09:52:04.983Z,38688.00
2019-03-12T09:53:05.010Z,37248.00
2019-03-12T09:54:04.997Z,31552.00
2019-03-12T09:55:05.200Z,31040.00
2019-03-12T09:56:04.913Z,33280.00
2019-03-12T09:57:04.980Z,39904.00
2019-03-12T09:58:04.875Z,43360.00
2019-03-12T09:59:04.910Z,41248.00
2019-03-12T10:00:15.456Z,47552.00
2019-03-12T10:01:05.888Z,51520.00
2019-03-12T10:02:04.839Z,49024.00
2019-03-12T10:03:04.896Z,49792.00
2019-03-12T10:04:04.838Z,49216.00
2019-03-12T10:05:04.933Z,31008.00
2019-03-12T10:06:04.828Z,19360.00
2019-03-12T10:07:04.797Z,39552.00
2019-03-12T10:08:04.763Z,51104.00
2019-03-12T10:09:04.792Z,52352.00
2019-03-12T10:10:04.828Z,52672.00
2019-03-12T10:11:04.756Z,53600.00
2019-03-12T10:12:04.750Z,56928.00
2019-03-12T10:13:04.742Z,60768.00
2019-03-12T10:14:04.738Z,64480.00
2019-03-12T10:15:04.746Z,59104.00
2019-03-12T10:16:04.714Z,56928.00
2019-03-12T10:17:04.728Z,52384.00
2019-03-12T10:18:04.669Z,44800.00
2019-03-12T10:19:04.705Z,40480.00
2019-03-12T10:20:04.636Z,34624.00
2019-03-12T10:21:04.728Z,33952.00
2019-03-12T10:22:04.652Z,34528.00
2019-03-12T10:23:04.605Z,32384.00
2019-03-12T10:24:04.708Z,33120.00
2019-03-12T10:25:04.585Z,34944.00
2019-03-12T10:26:04.628Z,34048.00
2019-03-12T10:27:04.560Z,34176.00
2019-03-12T10:28:04.564Z,34272.00
2019-03-12T10:29:04.719Z,35392.00
2019-03-12T10:30:04.568Z,35936.00
2019-03-12T10:31:04.525Z,40736.00
2019-03-12T10:32:04.524Z,35168.00
2019-03-12T10:33:04.570Z,36896.00
2019-03-12T10:34:04.483Z,35808.00
2019-03-12T10:35:04.490Z,36768.00
2019-03-12T10:36:04.851Z,35296.00
2019-03-12T10:37:11.847Z,34560.00
2019-03-12T10:38:05.494Z,33632.00
2019-03-12T10:39:04.475Z,33408.00
2019-03-12T10:40:04.475Z,33152.00
2019-03-12T10:41:04.409Z,34912.00
2019-03-12T10:42:04.407Z,34080.00
2019-03-12T10:43:04.407Z,34048.00
2019-03-12T10:44:04.403Z,33568.00
2019-03-12T10:45:04.627Z,33568.00
2019-03-12T10:46:04.370Z,32768.00
2019-03-12T10:47:04.423Z,32096.00
2019-03-12T10:48:04.332Z,32288.00
2019-03-12T10:49:04.329Z,49344.00
2019-03-12T10:50:04.321Z,43968.00
2019-03-12T10:51:04.336Z,41952.00
2019-03-12T10:52:04.341Z,43072.00
2019-03-12T10:53:04.516Z,48768.00
2019-03-12T10:54:04.303Z,42176.00
2019-03-12T10:55:12.814Z,47776.00
2019-03-12T10:56:05.268Z,42688.00
2019-03-12T10:57:04.242Z,38272.00
2019-03-12T10:58:04.295Z,42880.00
2019-03-12T10:59:04.270Z,33856.00
2019-03-12T11:00:04.273Z,35328.00
2019-03-12T11:01:04.209Z,32704.00
2019-03-12T11:02:04.259Z,31904.00
2019-03-12T11:03:04.213Z,32288.00
2019-03-12T11:04:04.240Z,33088.00
2019-03-12T11:05:04.207Z,35488.00
2019-03-12T11:06:04.150Z,34784.00
2019-03-12T11:07:15.843Z,34560.00
2019-03-12T11:08:06.834Z,35200.00
2019-03-12T11:09:04.100Z,35040.00
2019-03-12T11:10:04.184Z,32928.00
2019-03-12T11:11:04.083Z,31904.00
2019-03-12T11:12:04.067Z,33088.00
2019-03-12T11:13:04.192Z,33024.00
2019-03-12T11:14:04.059Z,37344.00
2019-03-12T11:15:04.283Z,66432.00
2019-03-12T11:16:04.091Z,37376.00
2019-03-12T11:17:04.020Z,33760.00
2019-03-12T11:18:04.066Z,53760.00
2019-03-12T11:19:04.083Z,46592.00
2019-03-12T11:20:03.982Z,67584.00
2019-03-12T11:21:04.033Z,42688.00
2019-03-12T11:22:03.981Z,39936.00
2019-03-12T11:23:04.114Z,44160.00
2019-03-12T11:24:04.002Z,36992.00
2019-03-12T11:25:03.938Z,44800.00
2019-03-12T11:26:03.954Z,56576.00
2019-03-12T11:27:04.071Z,54976.00
2019-03-12T11:28:03.904Z,35872.00
2019-03-12T11:29:03.889Z,53728.00
2019-03-12T11:30:03.898Z,42208.00
2019-03-12T11:31:03.900Z,52608.00
2019-03-12T11:32:03.916Z,40416.00
2019-03-12T11:33:03.862Z,34656.00
2019-03-12T11:34:03.858Z,31200.00
2019-03-12T11:35:03.883Z,30688.00
2019-03-12T11:36:03.961Z,30464.00
2019-03-12T11:37:03.845Z,30560.00
2019-03-12T11:38:03.853Z,30464.00
2019-03-12T11:39:03.807Z,31200.00
2019-03-12T11:40:03.887Z,32832.00
2019-03-12T11:41:03.893Z,31104.00
2019-03-12T11:42:03.816Z,32992.00
2019-03-12T11:43:03.775Z,32032.00
2019-03-12T11:44:03.741Z,32608.00
2019-03-12T11:45:13.113Z,30720.00
2019-03-12T11:46:04.810Z,29504.00
2019-03-12T11:47:03.789Z,28768.00
2019-03-12T11:48:03.854Z,28032.00
2019-03-12T11:49:03.834Z,27648.00
2019-03-12T11:50:03.725Z,27296.00
2019-03-12T11:51:03.706Z,26944.00
2019-03-12T11:52:03.664Z,26816.00
2019-03-12T11:53:03.957Z,27232.00
2019-03-12T11:54:03.778Z,27840.00
2019-03-12T11:55:03.653Z,28288.00
2019-03-12T11:56:03.943Z,28896.00
2019-03-12T11:57:03.598Z,30592.00
2019-03-12T11:58:03.621Z,31808.00
2019-03-12T11:59:04.010Z,31712.00
2019-03-12T12:00:03.610Z,34144.00
2019-03-12T12:01:03.846Z,37056.00
2019-03-12T12:02:03.544Z,37952.00
2019-03-12T12:03:03.682Z,40896.00
2019-03-12T12:04:03.528Z,32736.00
2019-03-12T12:05:03.558Z,39040.00
2019-03-12T12:06:03.601Z,45152.00
2019-03-12T12:07:03.602Z,42400.00
2019-03-12T12:08:03.562Z,37696.00
2019-03-12T12:09:03.811Z,33664.00
2019-03-12T12:10:03.635Z,34976.00
2019-03-12T12:11:03.505Z,38464.00
2019-03-12T12:12:03.435Z,32992.00
2019-03-12T12:13:03.431Z,34848.00
2019-03-12T12:14:03.457Z,38880.00
2019-03-12T12:15:03.412Z,39264.00
2019-03-12T12:16:03.416Z,39136.00
2019-03-12T12:17:03.392Z,43776.00
2019-03-12T12:18:03.387Z,44992.00
2019-03-12T12:19:03.395Z,46144.00
2019-03-12T12:20:03.352Z,34816.00
2019-03-12T12:21:03.345Z,33504.00
2019-03-12T12:22:03.356Z,32096.00
2019-03-12T12:23:03.311Z,29888.00
2019-03-12T12:24:03.309Z,27136.00
2019-03-12T12:25:03.281Z,25536.00
2019-03-12T12:26:03.284Z,24480.00
2019-03-12T12:27:03.277Z,24128.00
2019-03-12T12:28:03.253Z,24640.00
2019-03-12T12:29:03.237Z,25664.00